Aegean Tiffany — SVAE9 — position and weather

sailwx.info

Track history (hours):
 
Tides and Currents Weather Stations Pressure Air Temp Water Temp Dewpoint Dewpoint Depression Visibility Wind Speed Wind Dir Waves Ship Positions

Aegean Tiffany

Last reported at 2016-Apr-27 23:23 UTC. Time now 2016-May-02 23:09 UTC.
Position N 37°55' E 023°00'.

Length 80 m; draft 5.6 m.

Type: Tanker. MMSI: 240870000.

Date/timePositionNaut miles runAvg speedWind from/ knotsBaromVisibWave heightAir tempDewpointWater temp
2016-Apr-27 23:23N 37°55' E 023°00'5 6.7
2016-Apr-27 22:34N 37°54' E 023°07'8 7.5
2016-Apr-27 21:33N 37°56' E 023°17'7 7.5
2016-Apr-27 20:34N 37°58' E 023°26'6 6.1
2016-Apr-27 19:34N 38°02' E 023°32'0 0.2
2016-Apr-27 17:26N 38°02' E 023°32'0 0.0
2016-Apr-27 16:33N 38°02' E 023°32'0 0.1
2016-Apr-27 15:33N 38°02' E 023°32'3 2.8
2016-Apr-27 14:33N 38°02' E 023°36'0 0.0
2016-Apr-27 13:33N 38°02' E 023°36'0 0.0
2016-Apr-27 12:33N 38°02' E 023°36'0 0.0
2016-Apr-27 11:31N 38°02' E 023°36'0 0.0
2016-Apr-27 10:33N 38°02' E 023°36'0 0.0
2016-Apr-27 09:33N 38°02' E 023°36'0 0.0
2016-Apr-27 08:33N 38°02' E 023°36'1 0.6
2016-Apr-27 07:33N 38°01' E 023°35'0 0.1
2016-Apr-27 06:33N 38°01' E 023°35'0 0.0
2016-Apr-27 05:33N 38°01' E 023°35'0 0.0
2016-Apr-27 04:33N 38°01' E 023°35'0 0.0
2016-Apr-27 03:33N 38°01' E 023°35'0 0.0
2016-Apr-27 02:33N 38°01' E 023°35'0 0.0
2016-Apr-27 01:33N 38°01' E 023°35'0 0.0
2016-Apr-27 00:33N 38°01' E 023°35'0 0.0
2016-Apr-26 23:33N 38°01' E 023°35'0 0.0
2016-Apr-26 22:33N 38°01' E 023°35'0 0.0
2016-Apr-26 21:33N 38°01' E 023°35'0 0.0
2016-Apr-26 20:33N 38°01' E 023°35'3 3.4
2016-Apr-26 19:33N 38°02' E 023°31'0 0.1
2016-Apr-26 18:33N 38°02' E 023°31'0 0.0
2016-Apr-26 17:33N 38°02' E 023°31'0 0.0
2016-Apr-26 16:33N 38°02' E 023°31'0 0.0
2016-Apr-26 15:33N 38°02' E 023°31'0 0.0
2016-Apr-26 14:33N 38°02' E 023°31'0 0.0
2016-Apr-26 13:33N 38°02' E 023°31'1 0.6
2016-Apr-26 12:33N 38°02' E 023°31'0 0.4
2016-Apr-26 11:33N 38°02' E 023°32'3 3.1
2016-Apr-26 10:33N 37°59' E 023°33'4 3.9
2016-Apr-26 09:33N 37°57' E 023°37'0 0.0
2016-Apr-26 08:33N 37°57' E 023°37'0 0.0
2016-Apr-26 07:33N 37°57' E 023°37'3 3.0
2016-Apr-26 06:33N 37°57' E 023°33'5 4.9
2016-Apr-26 05:33N 38°02' E 023°32'0 0.0
2016-Apr-26 04:33N 38°02' E 023°32'0 0.0
2016-Apr-26 03:33N 38°02' E 023°32'0 0.0
2016-Apr-26 02:33N 38°02' E 023°32'0 0.0
2016-Apr-26 01:33N 38°02' E 023°32'0 0.0
2016-Apr-26 00:33N 38°02' E 023°32'0 0.0
2016-Apr-25 23:33N 38°02' E 023°32'0 0.0
2016-Apr-25 22:33N 38°02' E 023°32'1 1.3
2016-Apr-25 21:33N 38°02' E 023°31'6 6.5
2016-Apr-25 20:33N 37°57' E 023°24'9 8.7
2016-Apr-25 19:33N 37°55' E 023°14'9 8.5
2016-Apr-25 18:33N 37°54' E 023°03'  
2016-Apr-20 03:28N 38°14' E 022°20'37 7.2
2016-Apr-19 22:18N 37°55' E 023°01'5 6.4
2016-Apr-19 21:33N 37°55' E 023°07'8 8.0
2016-Apr-19 20:33N 37°56' E 023°16'8 7.5
2016-Apr-19 19:33N 37°58' E 023°26'6 6.3
2016-Apr-19 18:33N 38°02' E 023°32'0 0.0
2016-Apr-19 02:08N 38°02' E 023°32'1 1.7
2016-Apr-19 01:33N 38°02' E 023°31'0 0.1
2016-Apr-19 00:33N 38°02' E 023°31'0 0.0
2016-Apr-18 23:34N 38°02' E 023°31'0 0.0
2016-Apr-18 22:34N 38°02' E 023°31'0 0.0
2016-Apr-18 21:33N 38°02' E 023°31'1 1.3
2016-Apr-18 20:33N 38°02' E 023°32'3 2.6
2016-Apr-18 19:33N 38°02' E 023°36'0 0.0
2016-Apr-18 18:33N 38°02' E 023°36'0 0.0
2016-Apr-18 17:33N 38°02' E 023°36'0 0.0
2016-Apr-18 16:33N 38°02' E 023°36'0 0.0
2016-Apr-18 15:33N 38°02' E 023°36'0 0.0
2016-Apr-18 14:33N 38°02' E 023°36'0 0.5
2016-Apr-18 13:33N 38°02' E 023°35'0 0.0
2016-Apr-18 12:33N 38°02' E 023°35'0 0.0
2016-Apr-18 11:33N 38°02' E 023°35'2 2.3
2016-Apr-18 10:34N 38°02' E 023°32'  
Track history (hours):
 
Tides and Currents Weather Stations Pressure Air Temp Water Temp Dewpoint Dewpoint Depression Visibility Wind Speed Wind Dir Waves Ship Positions

Aegean Tiffany

Last reported at 2016-Apr-27 23:23 UTC. Time now 2016-May-02 23:09 UTC.
Position N 37°55' E 023°00'.

Length 80 m; draft 5.6 m.

Type: Tanker. MMSI: 240870000.

Date/timePositionNaut miles runAvg speedWind from/ knotsBaromVisibWave heightAir tempDewpointWater temp
2016-Apr-27 23:23N 37°55' E 023°00'5 6.7
2016-Apr-27 22:34N 37°54' E 023°07'8 7.5
2016-Apr-27 21:33N 37°56' E 023°17'7 7.5
2016-Apr-27 20:34N 37°58' E 023°26'6 6.1
2016-Apr-27 19:34N 38°02' E 023°32'0 0.2
2016-Apr-27 17:26N 38°02' E 023°32'0 0.0
2016-Apr-27 16:33N 38°02' E 023°32'0 0.1
2016-Apr-27 15:33N 38°02' E 023°32'3 2.8
2016-Apr-27 14:33N 38°02' E 023°36'0 0.0
2016-Apr-27 13:33N 38°02' E 023°36'0 0.0
2016-Apr-27 12:33N 38°02' E 023°36'0 0.0
2016-Apr-27 11:31N 38°02' E 023°36'0 0.0
2016-Apr-27 10:33N 38°02' E 023°36'0 0.0
2016-Apr-27 09:33N 38°02' E 023°36'0 0.0
2016-Apr-27 08:33N 38°02' E 023°36'1 0.6
2016-Apr-27 07:33N 38°01' E 023°35'0 0.1
2016-Apr-27 06:33N 38°01' E 023°35'0 0.0
2016-Apr-27 05:33N 38°01' E 023°35'0 0.0
2016-Apr-27 04:33N 38°01' E 023°35'0 0.0
2016-Apr-27 03:33N 38°01' E 023°35'0 0.0
2016-Apr-27 02:33N 38°01' E 023°35'0 0.0
2016-Apr-27 01:33N 38°01' E 023°35'0 0.0
2016-Apr-27 00:33N 38°01' E 023°35'0 0.0
2016-Apr-26 23:33N 38°01' E 023°35'0 0.0
2016-Apr-26 22:33N 38°01' E 023°35'0 0.0
2016-Apr-26 21:33N 38°01' E 023°35'0 0.0
2016-Apr-26 20:33N 38°01' E 023°35'3 3.4
2016-Apr-26 19:33N 38°02' E 023°31'0 0.1
2016-Apr-26 18:33N 38°02' E 023°31'0 0.0
2016-Apr-26 17:33N 38°02' E 023°31'0 0.0
2016-Apr-26 16:33N 38°02' E 023°31'0 0.0
2016-Apr-26 15:33N 38°02' E 023°31'0 0.0
2016-Apr-26 14:33N 38°02' E 023°31'0 0.0
2016-Apr-26 13:33N 38°02' E 023°31'1 0.6
2016-Apr-26 12:33N 38°02' E 023°31'0 0.4
2016-Apr-26 11:33N 38°02' E 023°32'3 3.1
2016-Apr-26 10:33N 37°59' E 023°33'4 3.9
2016-Apr-26 09:33N 37°57' E 023°37'0 0.0
2016-Apr-26 08:33N 37°57' E 023°37'0 0.0
2016-Apr-26 07:33N 37°57' E 023°37'3 3.0
2016-Apr-26 06:33N 37°57' E 023°33'5 4.9
2016-Apr-26 05:33N 38°02' E 023°32'0 0.0
2016-Apr-26 04:33N 38°02' E 023°32'0 0.0
2016-Apr-26 03:33N 38°02' E 023°32'0 0.0
2016-Apr-26 02:33N 38°02' E 023°32'0 0.0
2016-Apr-26 01:33N 38°02' E 023°32'0 0.0
2016-Apr-26 00:33N 38°02' E 023°32'0 0.0
2016-Apr-25 23:33N 38°02' E 023°32'0 0.0
2016-Apr-25 22:33N 38°02' E 023°32'1 1.3
2016-Apr-25 21:33N 38°02' E 023°31'6 6.5
2016-Apr-25 20:33N 37°57' E 023°24'9 8.7
2016-Apr-25 19:33N 37°55' E 023°14'9 8.5
2016-Apr-25 18:33N 37°54' E 023°03'  
2016-Apr-20 03:28N 38°14' E 022°20'37 7.2
2016-Apr-19 22:18N 37°55' E 023°01'5 6.4
2016-Apr-19 21:33N 37°55' E 023°07'8 8.0
2016-Apr-19 20:33N 37°56' E 023°16'8 7.5
2016-Apr-19 19:33N 37°58' E 023°26'6 6.3
2016-Apr-19 18:33N 38°02' E 023°32'0 0.0
2016-Apr-19 02:08N 38°02' E 023°32'1 1.7
2016-Apr-19 01:33N 38°02' E 023°31'0 0.1
2016-Apr-19 00:33N 38°02' E 023°31'0 0.0
2016-Apr-18 23:34N 38°02' E 023°31'0 0.0
2016-Apr-18 22:34N 38°02' E 023°31'0 0.0
2016-Apr-18 21:33N 38°02' E 023°31'1 1.3
2016-Apr-18 20:33N 38°02' E 023°32'3 2.6
2016-Apr-18 19:33N 38°02' E 023°36'0 0.0
2016-Apr-18 18:33N 38°02' E 023°36'0 0.0
2016-Apr-18 17:33N 38°02' E 023°36'0 0.0
2016-Apr-18 16:33N 38°02' E 023°36'0 0.0
2016-Apr-18 15:33N 38°02' E 023°36'0 0.0
2016-Apr-18 14:33N 38°02' E 023°36'0 0.5
2016-Apr-18 13:33N 38°02' E 023°35'0 0.0
2016-Apr-18 12:33N 38°02' E 023°35'0 0.0
2016-Apr-18 11:33N 38°02' E 023°35'2 2.3
2016-Apr-18 10:34N 38°02' E 023°32'  

Dump ship's entire track history